createdAt,value
2023-01-13T00:01:11.552Z,991.27
2023-01-13T00:06:54.639Z,991.31
2023-01-13T00:12:39.078Z,991.21
2023-01-13T00:18:23.127Z,991.31
2023-01-13T00:24:06.268Z,991.25
2023-01-13T00:29:49.132Z,991.23
2023-01-13T00:35:32.248Z,991.04
2023-01-13T00:41:15.929Z,991.07
2023-01-13T00:46:58.718Z,991
2023-01-13T00:52:43.156Z,990.97
2023-01-13T00:58:25.958Z,990.96
2023-01-13T01:04:08.903Z,990.89
2023-01-13T01:09:51.819Z,990.85
2023-01-13T01:15:34.518Z,990.88
2023-01-13T01:21:17.719Z,990.81
2023-01-13T01:27:00.640Z,990.93
2023-01-13T01:32:43.513Z,990.96
2023-01-13T01:38:26.442Z,991
2023-01-13T01:44:20.198Z,991.09
2023-01-13T01:50:03.833Z,991.06
2023-01-13T01:55:46.964Z,990.81
2023-01-13T02:01:30.215Z,990.9
2023-01-13T02:07:28.195Z,990.94
2023-01-13T02:13:12.693Z,990.91
2023-01-13T02:19:03.068Z,990.93
2023-01-13T02:24:57.836Z,990.98
2023-01-13T02:30:47.693Z,990.95
2023-01-13T02:36:34.768Z,990.83
2023-01-13T02:42:19.599Z,990.65
2023-01-13T02:48:06.176Z,990.61
2023-01-13T02:53:54.373Z,990.7
2023-01-13T02:59:38.208Z,990.82
2023-01-13T03:05:21.212Z,990.91
2023-01-13T03:11:08.819Z,990.95
2023-01-13T03:16:59.920Z,990.99
2023-01-13T03:22:45.710Z,990.87
2023-01-13T03:28:30.292Z,990.86
2023-01-13T03:34:16.301Z,990.68
2023-01-13T03:40:01.484Z,990.61
2023-01-13T03:45:45.697Z,990.52
2023-01-13T03:51:29.986Z,990.55
2023-01-13T03:57:16.564Z,990.65
2023-01-13T04:03:04.610Z,990.76
2023-01-13T04:08:51.815Z,990.74
2023-01-13T04:14:36.339Z,990.82
2023-01-13T04:20:19.418Z,990.94
2023-01-13T04:26:02.254Z,990.94
2023-01-13T04:31:45.027Z,991.16
2023-01-13T04:37:27.916Z,991.15
2023-01-13T04:43:10.942Z,991.1
2023-01-13T04:48:53.718Z,991.04
2023-01-13T04:54:36.666Z,991.14
2023-01-13T05:00:21.515Z,991.08
2023-01-13T05:06:04.565Z,991.15
2023-01-13T05:11:47.394Z,991.15
2023-01-13T05:17:31.535Z,991.09
2023-01-13T05:23:14.503Z,991.33
2023-01-13T05:28:57.417Z,991.36
2023-01-13T05:34:40.162Z,991.54
2023-01-13T05:40:23.118Z,991.33
2023-01-13T05:46:07.639Z,991.36
2023-01-13T05:51:51.708Z,991.39
2023-01-13T05:57:34.629Z,991.5
2023-01-13T06:03:18.414Z,991.46
2023-01-13T06:09:01.813Z,991.48
2023-01-13T06:14:44.507Z,991.43
2023-01-13T06:20:27.753Z,991.47
2023-01-13T06:26:16.350Z,991.59
2023-01-13T06:31:59.819Z,991.59
2023-01-13T06:37:44.140Z,991.71
2023-01-13T06:43:26.955Z,991.6
2023-01-13T06:49:09.879Z,991.57
2023-01-13T06:54:52.723Z,991.68
2023-01-13T07:00:36.103Z,991.68
2023-01-13T07:06:19.478Z,991.75
2023-01-13T07:12:02.344Z,991.92
2023-01-13T07:17:45.259Z,991.91
2023-01-13T07:23:29.057Z,991.97
2023-01-13T07:29:12.080Z,991.93
2023-01-13T07:34:55.971Z,992.06
2023-01-13T07:40:39.999Z,992.23
2023-01-13T07:46:22.801Z,992.32
2023-01-13T07:52:06.089Z,992.35
2023-01-13T07:57:48.745Z,992.36
2023-01-13T08:03:31.450Z,992.47
2023-01-13T08:09:14.491Z,992.5
2023-01-13T08:14:57.322Z,992.75
2023-01-13T08:20:40.186Z,992.84
2023-01-13T08:26:24.321Z,992.74
2023-01-13T08:32:07.230Z,992.87
2023-01-13T08:37:50.751Z,992.9
2023-01-13T08:43:33.549Z,992.88
2023-01-13T08:49:16.795Z,992.82
2023-01-13T08:54:59.564Z,992.94
2023-01-13T09:00:42.645Z,993.07
2023-01-13T09:06:25.503Z,993.2
2023-01-13T09:12:11.292Z,993.14
2023-01-13T09:17:54.249Z,993.05
2023-01-13T09:23:37.697Z,993.07
2023-01-13T09:29:21.060Z,993.12
2023-01-13T09:35:04.087Z,993.2
2023-01-13T09:40:48.733Z,993.41
2023-01-13T09:46:34.419Z,993.47
2023-01-13T09:52:19.254Z,993.69
2023-01-13T09:58:02.560Z,993.77
2023-01-13T10:03:45.778Z,993.8
2023-01-13T10:09:33.701Z,993.83
2023-01-13T10:15:23.286Z,993.82
2023-01-13T10:21:11.971Z,993.85
2023-01-13T10:26:59.936Z,993.78
2023-01-13T10:32:43.804Z,993.95
2023-01-13T10:38:28.124Z,993.77
2023-01-13T10:44:15.549Z,993.91
2023-01-13T10:50:10.816Z,993.93
2023-01-13T10:56:04.213Z,993.97
2023-01-13T11:01:54.735Z,994.04
2023-01-13T11:07:39.901Z,994.03
2023-01-13T11:13:27.792Z,994.06
2023-01-13T11:19:13.480Z,993.99
2023-01-13T11:24:59.108Z,994.06
2023-01-13T11:30:44.351Z,994.19
2023-01-13T11:36:31.817Z,994.17
2023-01-13T11:42:19.406Z,994.09
2023-01-13T11:48:03.465Z,993.87
2023-01-13T11:53:57.517Z,994.13
2023-01-13T11:59:51.687Z,994.22
2023-01-13T12:05:38.115Z,994.24
2023-01-13T12:11:26.183Z,994.28
2023-01-13T12:17:14.647Z,994.28
2023-01-13T12:23:00.661Z,994.28
2023-01-13T12:28:49.283Z,994.42
2023-01-13T12:34:39.847Z,994.41
2023-01-13T12:40:29.275Z,994.52
2023-01-13T12:46:23.894Z,994.47
2023-01-13T12:52:17.615Z,994.55
2023-01-13T12:58:03.466Z,994.67
2023-01-13T13:03:51.468Z,994.79
2023-01-13T13:09:38.982Z,994.83
2023-01-13T13:15:25.664Z,994.91
2023-01-13T13:21:10.171Z,994.88
2023-01-13T13:26:53.243Z,995.03
2023-01-13T13:32:47.754Z,995.05
2023-01-13T13:38:39.135Z,995.18
2023-01-13T13:44:23.035Z,995.23
2023-01-13T13:50:08.054Z,995.2
2023-01-13T13:55:58.779Z,995.37
2023-01-13T14:01:43.718Z,995.48
2023-01-13T14:07:27.035Z,995.57
2023-01-13T14:13:20.020Z,995.69
2023-01-13T14:19:02.937Z,995.9
2023-01-13T14:24:49.845Z,995.94
2023-01-13T14:30:34.351Z,996.04
2023-01-13T14:36:21.893Z,996.02
2023-01-13T14:42:04.867Z,996.11
2023-01-13T14:47:52.037Z,996.2
2023-01-13T14:53:36.898Z,996.29
2023-01-13T14:59:41.237Z,996.58
2023-01-13T15:05:34.784Z,996.64
2023-01-13T15:11:26.740Z,996.74
2023-01-13T15:17:16.461Z,996.82
2023-01-13T15:23:01.045Z,996.86
2023-01-13T15:28:44.263Z,997.09
2023-01-13T15:34:27.581Z,997.2
2023-01-13T15:40:12.970Z,997.25
2023-01-13T15:45:56.020Z,997.25
2023-01-13T15:51:39.397Z,997.33
2023-01-13T15:57:25.434Z,997.36
2023-01-13T16:03:11.899Z,997.65
2023-01-13T16:08:54.773Z,997.72
2023-01-13T16:14:37.771Z,997.84
2023-01-13T16:20:20.881Z,997.87
2023-01-13T16:26:04.819Z,997.87
2023-01-13T16:31:48.032Z,998.01
2023-01-13T16:37:31.182Z,998.13
2023-01-13T16:43:14.689Z,998.09
2023-01-13T16:49:02.374Z,998.16
2023-01-13T16:54:45.618Z,998.24
2023-01-13T17:00:28.608Z,998.33
2023-01-13T17:06:13.643Z,998.55
2023-01-13T17:11:56.431Z,998.69
2023-01-13T17:17:39.891Z,998.72
2023-01-13T17:23:23.170Z,998.85
2023-01-13T17:29:06.802Z,998.99
2023-01-13T17:34:49.886Z,999.1
2023-01-13T17:40:32.439Z,999.14
2023-01-13T17:46:16.008Z,999.3
2023-01-13T17:51:58.937Z,999.28
2023-01-13T17:57:41.898Z,999.27
2023-01-13T18:03:24.804Z,999.35
2023-01-13T18:09:07.754Z,999.4
2023-01-13T18:14:50.338Z,999.43
2023-01-13T18:20:33.326Z,999.45
2023-01-13T18:26:20.174Z,999.53
2023-01-13T18:32:03.105Z,999.66
2023-01-13T18:37:46.005Z,999.77
2023-01-13T18:43:29.137Z,999.83
2023-01-13T18:49:12.203Z,999.87
2023-01-13T18:54:55.178Z,999.95
2023-01-13T19:00:38.400Z,1000.11
2023-01-13T19:06:21.430Z,1000.22
2023-01-13T19:12:04.636Z,1000.25
2023-01-13T19:17:48.122Z,1000.25
2023-01-13T19:23:31.077Z,1000.35
2023-01-13T19:29:13.968Z,1000.3
2023-01-13T19:34:56.770Z,1000.29
2023-01-13T19:40:39.798Z,1000.3
2023-01-13T19:46:22.839Z,1000.31
2023-01-13T19:52:07.092Z,1000.38
2023-01-13T19:57:50.090Z,1000.52
2023-01-13T20:03:32.889Z,1000.57
2023-01-13T20:09:15.753Z,1000.6
2023-01-13T20:14:58.434Z,1000.63
2023-01-13T20:20:41.329Z,1000.65
2023-01-13T20:26:24.239Z,1000.76
2023-01-13T20:32:07.163Z,1000.79
2023-01-13T20:37:50.062Z,1000.8
2023-01-13T20:43:33.758Z,1000.97
2023-01-13T20:49:17.631Z,1001.06
2023-01-13T20:55:01.154Z,1001.06
2023-01-13T21:00:44.718Z,1001.05
2023-01-13T21:06:28.553Z,1000.99
2023-01-13T21:12:14.410Z,1000.97
2023-01-13T21:17:57.803Z,1001.07
2023-01-13T21:23:44.863Z,1000.94
2023-01-13T21:29:33.974Z,1001.01
2023-01-13T21:35:18.150Z,1001.09
2023-01-13T21:41:02.419Z,1001.13
2023-01-13T21:46:45.132Z,1001.03
2023-01-13T21:52:28.203Z,1001.06
2023-01-13T21:58:14.654Z,1001.15
2023-01-13T22:03:57.606Z,1001.15
2023-01-13T22:09:40.412Z,1001.26
2023-01-13T22:15:24.098Z,1001.32
2023-01-13T22:21:06.933Z,1001.34
2023-01-13T22:26:49.851Z,1001.37
2023-01-13T22:32:35.617Z,1001.22
2023-01-13T22:38:18.653Z,1001.2
2023-01-13T22:44:01.420Z,1001.36
2023-01-13T22:49:44.338Z,1001.32
2023-01-13T22:55:27.521Z,1001.3
2023-01-13T23:01:14.654Z,1001.33
2023-01-13T23:06:57.755Z,1001.48
2023-01-13T23:12:40.622Z,1001.47
2023-01-13T23:18:24.909Z,1001.33
2023-01-13T23:24:08.267Z,1001.04
2023-01-13T23:29:51.442Z,1000.93
2023-01-13T23:35:36.516Z,1000.86
2023-01-13T23:41:20.685Z,1000.92
2023-01-13T23:47:03.676Z,1001.13
2023-01-13T23:52:47.733Z,1001.24
2023-01-13T23:58:31.365Z,1001.2
